sensor_id;sensor_type;location;lat;lon;timestamp;P1;durP1;ratioP1;P2;durP2;ratioP2
8252;SDS011;61313;48.396;10.008;2022-12-07T00:01:09;7.47;;;6.63;;
8252;SDS011;61313;48.396;10.008;2022-12-07T00:03:37;8.07;;;6.40;;
8252;SDS011;61313;48.396;10.008;2022-12-07T00:06:05;10.13;;;6.87;;
8252;SDS011;61313;48.396;10.008;2022-12-07T00:08:33;7.70;;;6.30;;
8252;SDS011;61313;48.396;10.008;2022-12-07T00:11:03;10.20;;;6.90;;
8252;SDS011;61313;48.396;10.008;2022-12-07T00:13:30;9.60;;;8.00;;
8252;SDS011;61313;48.396;10.008;2022-12-07T00:16:04;15.80;;;7.10;;
8252;SDS011;61313;48.396;10.008;2022-12-07T00:18:35;9.37;;;7.20;;
8252;SDS011;61313;48.396;10.008;2022-12-07T00:21:05;10.40;;;7.07;;
8252;SDS011;61313;48.396;10.008;2022-12-07T00:23:42;12.03;;;8.60;;
8252;SDS011;61313;48.396;10.008;2022-12-07T00:26:11;10.43;;;8.40;;
8252;SDS011;61313;48.396;10.008;2022-12-07T00:28:40;9.57;;;8.30;;
8252;SDS011;61313;48.396;10.008;2022-12-07T00:31:07;8.77;;;7.63;;
8252;SDS011;61313;48.396;10.008;2022-12-07T00:33:35;8.70;;;7.30;;
8252;SDS011;61313;48.396;10.008;2022-12-07T00:36:03;8.50;;;7.60;;
8252;SDS011;61313;48.396;10.008;2022-12-07T00:38:35;8.03;;;7.20;;
8252;SDS011;61313;48.396;10.008;2022-12-07T00:41:03;9.43;;;7.30;;
8252;SDS011;61313;48.396;10.008;2022-12-07T00:43:30;8.70;;;7.13;;
8252;SDS011;61313;48.396;10.008;2022-12-07T00:45:56;11.10;;;7.17;;
8252;SDS011;61313;48.396;10.008;2022-12-07T00:48:23;8.87;;;7.07;;
8252;SDS011;61313;48.396;10.008;2022-12-07T00:50:49;9.10;;;7.23;;
8252;SDS011;61313;48.396;10.008;2022-12-07T00:53:16;7.80;;;7.00;;
8252;SDS011;61313;48.396;10.008;2022-12-07T00:55:42;14.57;;;9.43;;
8252;SDS011;61313;48.396;10.008;2022-12-07T00:58:08;12.53;;;8.20;;
8252;SDS011;61313;48.396;10.008;2022-12-07T01:00:38;10.10;;;8.70;;
8252;SDS011;61313;48.396;10.008;2022-12-07T01:03:06;9.93;;;7.77;;
8252;SDS011;61313;48.396;10.008;2022-12-07T01:05:33;12.63;;;7.40;;
8252;SDS011;61313;48.396;10.008;2022-12-07T01:07:59;8.47;;;7.20;;
8252;SDS011;61313;48.396;10.008;2022-12-07T01:10:26;9.20;;;7.60;;
8252;SDS011;61313;48.396;10.008;2022-12-07T01:12:52;8.00;;;7.13;;
8252;SDS011;61313;48.396;10.008;2022-12-07T01:15:18;8.33;;;7.30;;
8252;SDS011;61313;48.396;10.008;2022-12-07T01:17:44;10.87;;;7.90;;
8252;SDS011;61313;48.396;10.008;2022-12-07T01:20:10;8.87;;;7.77;;
8252;SDS011;61313;48.396;10.008;2022-12-07T01:22:37;8.80;;;7.90;;
8252;SDS011;61313;48.396;10.008;2022-12-07T01:25:03;12.27;;;8.90;;
8252;SDS011;61313;48.396;10.008;2022-12-07T01:27:30;8.37;;;7.17;;
8252;SDS011;61313;48.396;10.008;2022-12-07T01:29:57;10.17;;;7.87;;
8252;SDS011;61313;48.396;10.008;2022-12-07T01:32:22;10.37;;;9.27;;
8252;SDS011;61313;48.396;10.008;2022-12-07T01:34:48;11.70;;;8.23;;
8252;SDS011;61313;48.396;10.008;2022-12-07T01:37:14;9.87;;;8.60;;
8252;SDS011;61313;48.396;10.008;2022-12-07T01:39:39;17.27;;;8.50;;
8252;SDS011;61313;48.396;10.008;2022-12-07T01:42:08;9.00;;;7.40;;
8252;SDS011;61313;48.396;10.008;2022-12-07T01:45:14;14.60;;;9.67;;
8252;SDS011;61313;48.396;10.008;2022-12-07T01:47:39;11.30;;;8.43;;
8252;SDS011;61313;48.396;10.008;2022-12-07T01:50:06;14.17;;;9.50;;
8252;SDS011;61313;48.396;10.008;2022-12-07T01:52:32;11.83;;;9.57;;
8252;SDS011;61313;48.396;10.008;2022-12-07T01:55:01;10.40;;;8.07;;
8252;SDS011;61313;48.396;10.008;2022-12-07T01:57:36;10.13;;;8.10;;
8252;SDS011;61313;48.396;10.008;2022-12-07T02:00:06;11.10;;;8.93;;
8252;SDS011;61313;48.396;10.008;2022-12-07T02:02:34;13.23;;;8.83;;
8252;SDS011;61313;48.396;10.008;2022-12-07T02:05:06;11.83;;;8.87;;
8252;SDS011;61313;48.396;10.008;2022-12-07T02:07:32;10.20;;;8.90;;
8252;SDS011;61313;48.396;10.008;2022-12-07T02:10:14;15.20;;;8.87;;
8252;SDS011;61313;48.396;10.008;2022-12-07T02:12:43;14.03;;;9.63;;
8252;SDS011;61313;48.396;10.008;2022-12-07T02:15:11;12.37;;;9.73;;
8252;SDS011;61313;48.396;10.008;2022-12-07T02:31:32;19.50;;;11.20;;
8252;SDS011;61313;48.396;10.008;2022-12-07T02:34:02;15.17;;;11.70;;
8252;SDS011;61313;48.396;10.008;2022-12-07T02:36:36;12.90;;;10.17;;
8252;SDS011;61313;48.396;10.008;2022-12-07T02:39:08;17.10;;;11.40;;
8252;SDS011;61313;48.396;10.008;2022-12-07T02:41:43;20.37;;;10.60;;
8252;SDS011;61313;48.396;10.008;2022-12-07T02:44:14;15.83;;;11.20;;
8252;SDS011;61313;48.396;10.008;2022-12-07T02:46:53;17.50;;;10.50;;
8252;SDS011;61313;48.396;10.008;2022-12-07T02:49:23;16.40;;;11.97;;
8252;SDS011;61313;48.396;10.008;2022-12-07T02:51:51;18.10;;;12.50;;
8252;SDS011;61313;48.396;10.008;2022-12-07T02:54:18;18.63;;;10.80;;
8252;SDS011;61313;48.396;10.008;2022-12-07T03:04:50;15.70;;;10.60;;
8252;SDS011;61313;48.396;10.008;2022-12-07T03:10:14;21.17;;;11.13;;
8252;SDS011;61313;48.396;10.008;2022-12-07T03:15:27;22.30;;;10.30;;
8252;SDS011;61313;48.396;10.008;2022-12-07T03:18:21;16.43;;;10.20;;
8252;SDS011;61313;48.396;10.008;2022-12-07T03:20:50;15.80;;;10.93;;
8252;SDS011;61313;48.396;10.008;2022-12-07T03:23:18;21.70;;;12.60;;
8252;SDS011;61313;48.396;10.008;2022-12-07T03:25:47;22.10;;;10.73;;
8252;SDS011;61313;48.396;10.008;2022-12-07T03:28:18;21.10;;;10.17;;
8252;SDS011;61313;48.396;10.008;2022-12-07T03:33:20;12.17;;;9.43;;
8252;SDS011;61313;48.396;10.008;2022-12-07T03:38:48;13.47;;;9.80;;
8252;SDS011;61313;48.396;10.008;2022-12-07T03:41:26;12.50;;;10.67;;
8252;SDS011;61313;48.396;10.008;2022-12-07T03:43:54;12.67;;;9.37;;
8252;SDS011;61313;48.396;10.008;2022-12-07T03:49:25;14.13;;;9.80;;
8252;SDS011;61313;48.396;10.008;2022-12-07T03:52:22;13.23;;;10.50;;
8252;SDS011;61313;48.396;10.008;2022-12-07T03:57:46;14.77;;;9.40;;
8252;SDS011;61313;48.396;10.008;2022-12-07T04:00:14;11.40;;;9.60;;
8252;SDS011;61313;48.396;10.008;2022-12-07T04:02:41;10.20;;;8.83;;
8252;SDS011;61313;48.396;10.008;2022-12-07T04:05:07;10.90;;;8.30;;
8252;SDS011;61313;48.396;10.008;2022-12-07T04:07:35;11.50;;;9.03;;
8252;SDS011;61313;48.396;10.008;2022-12-07T04:10:01;13.40;;;9.50;;
8252;SDS011;61313;48.396;10.008;2022-12-07T04:12:27;11.77;;;8.53;;
8252;SDS011;61313;48.396;10.008;2022-12-07T04:14:52;12.83;;;8.70;;
8252;SDS011;61313;48.396;10.008;2022-12-07T04:17:18;14.50;;;7.93;;
8252;SDS011;61313;48.396;10.008;2022-12-07T04:19:44;11.60;;;8.67;;
8252;SDS011;61313;48.396;10.008;2022-12-07T04:22:09;11.23;;;8.00;;
8252;SDS011;61313;48.396;10.008;2022-12-07T04:24:35;15.47;;;8.63;;
8252;SDS011;61313;48.396;10.008;2022-12-07T04:27:01;12.63;;;7.70;;
8252;SDS011;61313;48.396;10.008;2022-12-07T04:29:26;8.60;;;7.60;;
8252;SDS011;61313;48.396;10.008;2022-12-07T04:31:52;9.37;;;8.00;;
8252;SDS011;61313;48.396;10.008;2022-12-07T04:34:18;11.30;;;8.73;;
8252;SDS011;61313;48.396;10.008;2022-12-07T04:36:45;19.33;;;9.20;;
8252;SDS011;61313;48.396;10.008;2022-12-07T04:39:19;9.13;;;8.13;;
8252;SDS011;61313;48.396;10.008;2022-12-07T04:41:46;9.93;;;8.27;;
8252;SDS011;61313;48.396;10.008;2022-12-07T04:44:13;9.10;;;7.23;;
8252;SDS011;61313;48.396;10.008;2022-12-07T04:46:40;10.33;;;8.13;;
8252;SDS011;61313;48.396;10.008;2022-12-07T04:49:06;15.60;;;11.87;;
8252;SDS011;61313;48.396;10.008;2022-12-07T04:51:32;16.67;;;12.20;;
8252;SDS011;61313;48.396;10.008;2022-12-07T04:53:57;11.00;;;8.80;;
8252;SDS011;61313;48.396;10.008;2022-12-07T04:56:23;13.70;;;8.63;;
8252;SDS011;61313;48.396;10.008;2022-12-07T04:58:49;9.57;;;8.10;;
8252;SDS011;61313;48.396;10.008;2022-12-07T05:01:16;13.37;;;7.90;;
8252;SDS011;61313;48.396;10.008;2022-12-07T05:03:42;9.97;;;8.10;;
8252;SDS011;61313;48.396;10.008;2022-12-07T05:06:08;9.80;;;8.80;;
8252;SDS011;61313;48.396;10.008;2022-12-07T05:08:35;14.67;;;9.70;;
8252;SDS011;61313;48.396;10.008;2022-12-07T05:11:01;11.50;;;8.43;;
8252;SDS011;61313;48.396;10.008;2022-12-07T05:13:28;10.40;;;8.80;;
8252;SDS011;61313;48.396;10.008;2022-12-07T05:15:54;12.23;;;9.33;;
8252;SDS011;61313;48.396;10.008;2022-12-07T05:18:19;12.97;;;8.90;;
8252;SDS011;61313;48.396;10.008;2022-12-07T05:20:45;13.80;;;8.00;;
8252;SDS011;61313;48.396;10.008;2022-12-07T05:23:11;10.63;;;8.27;;
8252;SDS011;61313;48.396;10.008;2022-12-07T05:25:37;12.07;;;8.27;;
8252;SDS011;61313;48.396;10.008;2022-12-07T05:28:03;9.10;;;7.97;;
8252;SDS011;61313;48.396;10.008;2022-12-07T05:30:29;14.27;;;8.17;;
8252;SDS011;61313;48.396;10.008;2022-12-07T05:32:55;10.80;;;7.23;;
8252;SDS011;61313;48.396;10.008;2022-12-07T05:35:21;8.40;;;6.80;;
8252;SDS011;61313;48.396;10.008;2022-12-07T05:37:46;9.70;;;7.50;;
8252;SDS011;61313;48.396;10.008;2022-12-07T05:40:12;19.80;;;7.33;;
8252;SDS011;61313;48.396;10.008;2022-12-07T05:42:39;10.17;;;7.30;;
8252;SDS011;61313;48.396;10.008;2022-12-07T05:45:05;12.40;;;7.20;;
8252;SDS011;61313;48.396;10.008;2022-12-07T05:47:32;14.47;;;7.60;;
8252;SDS011;61313;48.396;10.008;2022-12-07T05:49:57;12.37;;;8.30;;
8252;SDS011;61313;48.396;10.008;2022-12-07T05:52:23;8.03;;;6.40;;
8252;SDS011;61313;48.396;10.008;2022-12-07T05:54:49;14.03;;;7.67;;
8252;SDS011;61313;48.396;10.008;2022-12-07T05:57:15;17.27;;;8.30;;
8252;SDS011;61313;48.396;10.008;2022-12-07T05:59:41;25.93;;;8.23;;
8252;SDS011;61313;48.396;10.008;2022-12-07T06:02:08;15.70;;;8.33;;
8252;SDS011;61313;48.396;10.008;2022-12-07T06:04:36;15.80;;;9.00;;
8252;SDS011;61313;48.396;10.008;2022-12-07T06:07:07;14.57;;;10.10;;
8252;SDS011;61313;48.396;10.008;2022-12-07T06:09:33;10.07;;;8.13;;
8252;SDS011;61313;48.396;10.008;2022-12-07T06:12:00;11.83;;;8.10;;
8252;SDS011;61313;48.396;10.008;2022-12-07T06:14:44;13.47;;;8.20;;
8252;SDS011;61313;48.396;10.008;2022-12-07T06:17:10;15.30;;;6.70;;
8252;SDS011;61313;48.396;10.008;2022-12-07T06:19:37;22.70;;;9.07;;
8252;SDS011;61313;48.396;10.008;2022-12-07T06:22:03;12.77;;;8.27;;
8252;SDS011;61313;48.396;10.008;2022-12-07T06:24:29;11.93;;;7.30;;
8252;SDS011;61313;48.396;10.008;2022-12-07T06:26:56;17.03;;;9.20;;
8252;SDS011;61313;48.396;10.008;2022-12-07T06:29:22;14.27;;;7.77;;
8252;SDS011;61313;48.396;10.008;2022-12-07T06:31:48;14.23;;;9.00;;
8252;SDS011;61313;48.396;10.008;2022-12-07T06:34:15;41.20;;;11.63;;
8252;SDS011;61313;48.396;10.008;2022-12-07T06:36:42;35.23;;;11.00;;
8252;SDS011;61313;48.396;10.008;2022-12-07T06:39:09;19.13;;;9.30;;
8252;SDS011;61313;48.396;10.008;2022-12-07T06:41:36;39.13;;;11.10;;
8252;SDS011;61313;48.396;10.008;2022-12-07T06:44:02;52.00;;;13.13;;
8252;SDS011;61313;48.396;10.008;2022-12-07T06:46:29;24.30;;;10.60;;
8252;SDS011;61313;48.396;10.008;2022-12-07T06:48:54;15.27;;;8.47;;
8252;SDS011;61313;48.396;10.008;2022-12-07T06:51:20;41.00;;;11.07;;
8252;SDS011;61313;48.396;10.008;2022-12-07T06:53:46;21.30;;;10.10;;
8252;SDS011;61313;48.396;10.008;2022-12-07T06:56:12;23.97;;;9.10;;
8252;SDS011;61313;48.396;10.008;2022-12-07T06:58:38;45.83;;;11.00;;
8252;SDS011;61313;48.396;10.008;2022-12-07T07:01:11;23.00;;;8.93;;
8252;SDS011;61313;48.396;10.008;2022-12-07T07:03:41;17.87;;;8.37;;
8252;SDS011;61313;48.396;10.008;2022-12-07T07:06:07;14.90;;;8.53;;
8252;SDS011;61313;48.396;10.008;2022-12-07T07:08:36;39.80;;;10.23;;
8252;SDS011;61313;48.396;10.008;2022-12-07T07:11:03;17.83;;;8.80;;
8252;SDS011;61313;48.396;10.008;2022-12-07T07:13:29;17.20;;;7.37;;
8252;SDS011;61313;48.396;10.008;2022-12-07T07:15:55;175.60;;;22.03;;
8252;SDS011;61313;48.396;10.008;2022-12-07T07:18:21;58.93;;;13.30;;
8252;SDS011;61313;48.396;10.008;2022-12-07T07:20:47;63.83;;;12.77;;
8252;SDS011;61313;48.396;10.008;2022-12-07T07:23:13;32.40;;;9.17;;
8252;SDS011;61313;48.396;10.008;2022-12-07T07:25:38;17.43;;;8.63;;
8252;SDS011;61313;48.396;10.008;2022-12-07T07:28:04;33.27;;;8.80;;
8252;SDS011;61313;48.396;10.008;2022-12-07T07:30:30;29.63;;;8.87;;
8252;SDS011;61313;48.396;10.008;2022-12-07T07:33:00;18.67;;;7.60;;
8252;SDS011;61313;48.396;10.008;2022-12-07T07:35:27;22.33;;;7.83;;
8252;SDS011;61313;48.396;10.008;2022-12-07T07:37:53;18.23;;;8.10;;
8252;SDS011;61313;48.396;10.008;2022-12-07T07:40:19;28.83;;;7.97;;
8252;SDS011;61313;48.396;10.008;2022-12-07T07:42:49;25.20;;;8.27;;
8252;SDS011;61313;48.396;10.008;2022-12-07T07:45:16;16.53;;;8.37;;
8252;SDS011;61313;48.396;10.008;2022-12-07T07:47:43;16.37;;;10.33;;
8252;SDS011;61313;48.396;10.008;2022-12-07T07:50:09;17.73;;;9.97;;
8252;SDS011;61313;48.396;10.008;2022-12-07T07:52:35;16.13;;;8.77;;
8252;SDS011;61313;48.396;10.008;2022-12-07T07:55:00;9.43;;;8.27;;
8252;SDS011;61313;48.396;10.008;2022-12-07T07:57:26;12.90;;;8.47;;
8252;SDS011;61313;48.396;10.008;2022-12-07T07:59:52;8.93;;;7.27;;
8252;SDS011;61313;48.396;10.008;2022-12-07T08:02:18;10.63;;;8.60;;
8252;SDS011;61313;48.396;10.008;2022-12-07T08:04:46;56.27;;;12.07;;
8252;SDS011;61313;48.396;10.008;2022-12-07T08:07:12;18.60;;;11.23;;
8252;SDS011;61313;48.396;10.008;2022-12-07T08:09:38;64.70;;;15.40;;
8252;SDS011;61313;48.396;10.008;2022-12-07T08:12:04;69.33;;;18.33;;
8252;SDS011;61313;48.396;10.008;2022-12-07T08:14:30;45.70;;;12.03;;
8252;SDS011;61313;48.396;10.008;2022-12-07T08:16:56;40.03;;;12.73;;
8252;SDS011;61313;48.396;10.008;2022-12-07T08:19:22;51.97;;;13.73;;
8252;SDS011;61313;48.396;10.008;2022-12-07T08:21:48;40.10;;;12.30;;
8252;SDS011;61313;48.396;10.008;2022-12-07T08:24:14;16.63;;;10.20;;
8252;SDS011;61313;48.396;10.008;2022-12-07T08:26:40;27.83;;;10.60;;
8252;SDS011;61313;48.396;10.008;2022-12-07T08:29:06;15.83;;;8.80;;
8252;SDS011;61313;48.396;10.008;2022-12-07T08:31:31;18.07;;;11.10;;
8252;SDS011;61313;48.396;10.008;2022-12-07T08:33:57;12.63;;;8.67;;
8252;SDS011;61313;48.396;10.008;2022-12-07T08:36:23;14.77;;;9.10;;
8252;SDS011;61313;48.396;10.008;2022-12-07T08:38:49;11.70;;;9.30;;
8252;SDS011;61313;48.396;10.008;2022-12-07T08:41:15;10.40;;;9.37;;
8252;SDS011;61313;48.396;10.008;2022-12-07T08:43:41;17.50;;;9.20;;
8252;SDS011;61313;48.396;10.008;2022-12-07T08:48:58;13.70;;;9.00;;
8252;SDS011;61313;48.396;10.008;2022-12-07T08:51:28;15.70;;;9.43;;
8252;SDS011;61313;48.396;10.008;2022-12-07T08:53:54;15.23;;;9.07;;
8252;SDS011;61313;48.396;10.008;2022-12-07T08:56:23;11.63;;;8.77;;
8252;SDS011;61313;48.396;10.008;2022-12-07T08:58:49;13.50;;;8.63;;
8252;SDS011;61313;48.396;10.008;2022-12-07T09:01:15;11.27;;;8.10;;
8252;SDS011;61313;48.396;10.008;2022-12-07T09:03:41;12.90;;;8.10;;
8252;SDS011;61313;48.396;10.008;2022-12-07T09:06:07;17.57;;;8.13;;
8252;SDS011;61313;48.396;10.008;2022-12-07T09:08:34;23.30;;;7.30;;
8252;SDS011;61313;48.396;10.008;2022-12-07T09:11:04;30.40;;;9.57;;
8252;SDS011;61313;48.396;10.008;2022-12-07T09:13:32;18.50;;;8.17;;
8252;SDS011;61313;48.396;10.008;2022-12-07T09:15:58;257.03;;;30.40;;
8252;SDS011;61313;48.396;10.008;2022-12-07T09:18:24;24.60;;;7.50;;
8252;SDS011;61313;48.396;10.008;2022-12-07T09:20:50;64.07;;;12.60;;
8252;SDS011;61313;48.396;10.008;2022-12-07T09:23:16;39.17;;;8.10;;
8252;SDS011;61313;48.396;10.008;2022-12-07T09:25:41;15.97;;;7.07;;
8252;SDS011;61313;48.396;10.008;2022-12-07T09:28:07;17.43;;;8.00;;
8252;SDS011;61313;48.396;10.008;2022-12-07T09:30:33;11.87;;;6.70;;
8252;SDS011;61313;48.396;10.008;2022-12-07T09:32:59;7.20;;;5.30;;
8252;SDS011;61313;48.396;10.008;2022-12-07T09:35:25;9.33;;;5.43;;
8252;SDS011;61313;48.396;10.008;2022-12-07T09:37:50;7.13;;;5.33;;
8252;SDS011;61313;48.396;10.008;2022-12-07T09:40:17;10.13;;;5.63;;
8252;SDS011;61313;48.396;10.008;2022-12-07T09:42:47;23.83;;;7.30;;
8252;SDS011;61313;48.396;10.008;2022-12-07T09:45:19;54.47;;;10.00;;
8252;SDS011;61313;48.396;10.008;2022-12-07T09:47:48;34.03;;;9.27;;
8252;SDS011;61313;48.396;10.008;2022-12-07T09:50:15;35.60;;;9.43;;
8252;SDS011;61313;48.396;10.008;2022-12-07T09:52:45;15.23;;;6.80;;
8252;SDS011;61313;48.396;10.008;2022-12-07T09:55:13;9.60;;;5.77;;
8252;SDS011;61313;48.396;10.008;2022-12-07T09:57:50;5.93;;;5.00;;
8252;SDS011;61313;48.396;10.008;2022-12-07T10:00:20;15.57;;;6.53;;
8252;SDS011;61313;48.396;10.008;2022-12-07T10:05:20;23.93;;;7.07;;
8252;SDS011;61313;48.396;10.008;2022-12-07T10:07:50;42.63;;;9.30;;
8252;SDS011;61313;48.396;10.008;2022-12-07T10:10:34;24.50;;;7.57;;
8252;SDS011;61313;48.396;10.008;2022-12-07T10:13:07;23.10;;;5.37;;
8252;SDS011;61313;48.396;10.008;2022-12-07T10:18:25;41.17;;;7.63;;
8252;SDS011;61313;48.396;10.008;2022-12-07T10:21:16;6.50;;;4.23;;
8252;SDS011;61313;48.396;10.008;2022-12-07T10:28:59;13.77;;;4.77;;
8252;SDS011;61313;48.396;10.008;2022-12-07T10:31:39;16.57;;;5.90;;
8252;SDS011;61313;48.396;10.008;2022-12-07T10:34:14;6.37;;;4.40;;
8252;SDS011;61313;48.396;10.008;2022-12-07T10:36:52;11.53;;;5.23;;
8252;SDS011;61313;48.396;10.008;2022-12-07T10:39:19;20.83;;;5.47;;
8252;SDS011;61313;48.396;10.008;2022-12-07T10:41:56;13.83;;;6.03;;
8252;SDS011;61313;48.396;10.008;2022-12-07T10:44:25;7.17;;;5.63;;
8252;SDS011;61313;48.396;10.008;2022-12-07T11:18:21;35.27;;;5.20;;
8252;SDS011;61313;48.396;10.008;2022-12-07T11:20:53;9.10;;;3.93;;
8252;SDS011;61313;48.396;10.008;2022-12-07T11:23:46;6.50;;;4.03;;
8252;SDS011;61313;48.396;10.008;2022-12-07T11:32:16;9.90;;;3.60;;
8252;SDS011;61313;48.396;10.008;2022-12-07T11:37:41;24.30;;;6.00;;
8252;SDS011;61313;48.396;10.008;2022-12-07T11:42:46;6.00;;;3.60;;
8252;SDS011;61313;48.396;10.008;2022-12-07T11:45:27;6.57;;;4.10;;
8252;SDS011;61313;48.396;10.008;2022-12-07T11:50:42;6.83;;;3.80;;
8252;SDS011;61313;48.396;10.008;2022-12-07T11:53:19;7.87;;;4.47;;
8252;SDS011;61313;48.396;10.008;2022-12-07T12:01:28;19.00;;;6.50;;
8252;SDS011;61313;48.396;10.008;2022-12-07T12:06:35;35.30;;;5.50;;
8252;SDS011;61313;48.396;10.008;2022-12-07T12:09:18;46.93;;;7.83;;
8252;SDS011;61313;48.396;10.008;2022-12-07T12:12:37;63.70;;;9.20;;
8252;SDS011;61313;48.396;10.008;2022-12-07T12:23:43;123.10;;;14.87;;
8252;SDS011;61313;48.396;10.008;2022-12-07T12:26:20;42.60;;;7.93;;
8252;SDS011;61313;48.396;10.008;2022-12-07T12:33:58;7.50;;;3.83;;
8252;SDS011;61313;48.396;10.008;2022-12-07T12:54:18;7.50;;;3.73;;
8252;SDS011;61313;48.396;10.008;2022-12-07T13:02:21;9.13;;;3.07;;
8252;SDS011;61313;48.396;10.008;2022-12-07T13:04:56;4.10;;;3.67;;
8252;SDS011;61313;48.396;10.008;2022-12-07T13:20:41;3.20;;;2.57;;
8252;SDS011;61313;48.396;10.008;2022-12-07T13:23:09;4.03;;;3.00;;
8252;SDS011;61313;48.396;10.008;2022-12-07T13:25:42;17.93;;;6.80;;
8252;SDS011;61313;48.396;10.008;2022-12-07T13:28:21;4.03;;;3.00;;
8252;SDS011;61313;48.396;10.008;2022-12-07T13:33:35;4.70;;;3.03;;
8252;SDS011;61313;48.396;10.008;2022-12-07T13:36:01;9.07;;;3.60;;
8252;SDS011;61313;48.396;10.008;2022-12-07T13:38:28;11.10;;;4.90;;
8252;SDS011;61313;48.396;10.008;2022-12-07T13:41:03;16.97;;;4.93;;
8252;SDS011;61313;48.396;10.008;2022-12-07T13:43:51;11.67;;;5.30;;
8252;SDS011;61313;48.396;10.008;2022-12-07T13:47:30;4.03;;;3.10;;
8252;SDS011;61313;48.396;10.008;2022-12-07T13:49:28;7.20;;;3.20;;
8252;SDS011;61313;48.396;10.008;2022-12-07T13:52:08;5.83;;;3.23;;
8252;SDS011;61313;48.396;10.008;2022-12-07T13:54:44;53.53;;;7.80;;
8252;SDS011;61313;48.396;10.008;2022-12-07T13:57:18;7.60;;;4.47;;
8252;SDS011;61313;48.396;10.008;2022-12-07T13:59:44;7.07;;;3.37;;
8252;SDS011;61313;48.396;10.008;2022-12-07T14:02:18;6.23;;;3.17;;
8252;SDS011;61313;48.396;10.008;2022-12-07T14:04:52;6.20;;;3.50;;
8252;SDS011;61313;48.396;10.008;2022-12-07T14:10:23;7.40;;;3.63;;
8252;SDS011;61313;48.396;10.008;2022-12-07T14:12:52;47.33;;;6.90;;
8252;SDS011;61313;48.396;10.008;2022-12-07T14:15:20;19.87;;;4.77;;
8252;SDS011;61313;48.396;10.008;2022-12-07T14:17:52;35.77;;;5.30;;
8252;SDS011;61313;48.396;10.008;2022-12-07T14:20:29;38.97;;;5.47;;
8252;SDS011;61313;48.396;10.008;2022-12-07T14:23:26;10.83;;;4.50;;
8252;SDS011;61313;48.396;10.008;2022-12-07T14:25:53;13.13;;;3.50;;
8252;SDS011;61313;48.396;10.008;2022-12-07T14:28:51;6.63;;;3.13;;
8252;SDS011;61313;48.396;10.008;2022-12-07T14:31:12;4.13;;;2.97;;
8252;SDS011;61313;48.396;10.008;2022-12-07T14:33:39;33.53;;;7.30;;
8252;SDS011;61313;48.396;10.008;2022-12-07T14:36:06;166.83;;;19.30;;
8252;SDS011;61313;48.396;10.008;2022-12-07T14:38:34;23.07;;;6.57;;
8252;SDS011;61313;48.396;10.008;2022-12-07T14:41:00;6.90;;;3.10;;
8252;SDS011;61313;48.396;10.008;2022-12-07T14:43:44;8.53;;;4.40;;
8252;SDS011;61313;48.396;10.008;2022-12-07T14:46:10;9.87;;;4.10;;
8252;SDS011;61313;48.396;10.008;2022-12-07T14:48:36;19.97;;;4.23;;
8252;SDS011;61313;48.396;10.008;2022-12-07T14:51:01;19.93;;;4.80;;
8252;SDS011;61313;48.396;10.008;2022-12-07T14:53:29;5.20;;;3.20;;
8252;SDS011;61313;48.396;10.008;2022-12-07T14:56:05;5.90;;;2.60;;
8252;SDS011;61313;48.396;10.008;2022-12-07T14:58:31;8.43;;;3.30;;
8252;SDS011;61313;48.396;10.008;2022-12-07T15:00:57;19.63;;;4.60;;
8252;SDS011;61313;48.396;10.008;2022-12-07T15:03:23;19.47;;;5.03;;
8252;SDS011;61313;48.396;10.008;2022-12-07T15:05:49;55.63;;;9.10;;
8252;SDS011;61313;48.396;10.008;2022-12-07T15:08:15;23.03;;;5.33;;
8252;SDS011;61313;48.396;10.008;2022-12-07T15:10:40;17.90;;;4.40;;
8252;SDS011;61313;48.396;10.008;2022-12-07T15:13:06;88.20;;;11.73;;
8252;SDS011;61313;48.396;10.008;2022-12-07T15:15:52;18.10;;;5.67;;
8252;SDS011;61313;48.396;10.008;2022-12-07T15:18:19;20.37;;;4.70;;
8252;SDS011;61313;48.396;10.008;2022-12-07T15:20:46;9.30;;;4.50;;
8252;SDS011;61313;48.396;10.008;2022-12-07T15:23:12;24.27;;;4.47;;
8252;SDS011;61313;48.396;10.008;2022-12-07T15:25:41;8.37;;;3.00;;
8252;SDS011;61313;48.396;10.008;2022-12-07T15:28:08;7.77;;;3.83;;
8252;SDS011;61313;48.396;10.008;2022-12-07T15:30:34;10.73;;;3.40;;
8252;SDS011;61313;48.396;10.008;2022-12-07T15:33:01;4.97;;;3.30;;
8252;SDS011;61313;48.396;10.008;2022-12-07T15:35:27;12.93;;;3.30;;
8252;SDS011;61313;48.396;10.008;2022-12-07T15:37:53;23.17;;;5.10;;
8252;SDS011;61313;48.396;10.008;2022-12-07T15:40:18;12.10;;;4.13;;
8252;SDS011;61313;48.396;10.008;2022-12-07T15:42:44;22.60;;;5.80;;
8252;SDS011;61313;48.396;10.008;2022-12-07T15:45:09;11.83;;;5.23;;
8252;SDS011;61313;48.396;10.008;2022-12-07T15:47:39;35.07;;;7.30;;
8252;SDS011;61313;48.396;10.008;2022-12-07T15:50:10;15.50;;;5.80;;
8252;SDS011;61313;48.396;10.008;2022-12-07T15:52:38;22.87;;;5.60;;
8252;SDS011;61313;48.396;10.008;2022-12-07T15:55:05;17.37;;;5.57;;
8252;SDS011;61313;48.396;10.008;2022-12-07T15:57:32;13.73;;;4.47;;
8252;SDS011;61313;48.396;10.008;2022-12-07T16:00:00;9.47;;;4.70;;
8252;SDS011;61313;48.396;10.008;2022-12-07T16:02:26;26.33;;;5.40;;
8252;SDS011;61313;48.396;10.008;2022-12-07T16:04:52;11.50;;;4.33;;
8252;SDS011;61313;48.396;10.008;2022-12-07T16:07:18;32.40;;;7.50;;
8252;SDS011;61313;48.396;10.008;2022-12-07T16:09:45;11.87;;;4.50;;
8252;SDS011;61313;48.396;10.008;2022-12-07T16:12:11;6.13;;;4.20;;
8252;SDS011;61313;48.396;10.008;2022-12-07T16:14:38;7.83;;;4.17;;
8252;SDS011;61313;48.396;10.008;2022-12-07T16:17:05;9.33;;;4.87;;
8252;SDS011;61313;48.396;10.008;2022-12-07T16:19:32;5.00;;;3.40;;
8252;SDS011;61313;48.396;10.008;2022-12-07T16:21:58;4.23;;;3.83;;
8252;SDS011;61313;48.396;10.008;2022-12-07T16:24:24;8.77;;;4.30;;
8252;SDS011;61313;48.396;10.008;2022-12-07T16:26:50;5.50;;;4.30;;
8252;SDS011;61313;48.396;10.008;2022-12-07T16:29:16;7.23;;;4.73;;
8252;SDS011;61313;48.396;10.008;2022-12-07T16:31:43;6.33;;;4.10;;
8252;SDS011;61313;48.396;10.008;2022-12-07T16:34:09;8.80;;;4.27;;
8252;SDS011;61313;48.396;10.008;2022-12-07T16:36:35;7.77;;;5.63;;
8252;SDS011;61313;48.396;10.008;2022-12-07T16:39:01;7.47;;;6.60;;
8252;SDS011;61313;48.396;10.008;2022-12-07T16:41:28;7.43;;;5.40;;
8252;SDS011;61313;48.396;10.008;2022-12-07T16:43:53;7.33;;;5.00;;
8252;SDS011;61313;48.396;10.008;2022-12-07T16:46:19;7.93;;;4.77;;
8252;SDS011;61313;48.396;10.008;2022-12-07T16:48:45;6.40;;;4.77;;
8252;SDS011;61313;48.396;10.008;2022-12-07T16:51:11;11.23;;;6.03;;
8252;SDS011;61313;48.396;10.008;2022-12-07T16:53:39;9.57;;;5.00;;
8252;SDS011;61313;48.396;10.008;2022-12-07T16:56:13;6.20;;;4.77;;
8252;SDS011;61313;48.396;10.008;2022-12-07T16:58:41;6.00;;;4.80;;
8252;SDS011;61313;48.396;10.008;2022-12-07T17:01:14;7.17;;;4.93;;
8252;SDS011;61313;48.396;10.008;2022-12-07T17:03:42;8.00;;;6.13;;
8252;SDS011;61313;48.396;10.008;2022-12-07T17:06:21;8.67;;;5.97;;
8252;SDS011;61313;48.396;10.008;2022-12-07T17:08:48;10.80;;;7.43;;
8252;SDS011;61313;48.396;10.008;2022-12-07T17:11:19;18.60;;;6.20;;
8252;SDS011;61313;48.396;10.008;2022-12-07T17:13:49;7.60;;;6.13;;
8252;SDS011;61313;48.396;10.008;2022-12-07T17:16:34;9.50;;;5.63;;
8252;SDS011;61313;48.396;10.008;2022-12-07T17:19:03;5.50;;;4.10;;
8252;SDS011;61313;48.396;10.008;2022-12-07T17:21:30;6.80;;;5.23;;
8252;SDS011;61313;48.396;10.008;2022-12-07T17:23:58;13.47;;;5.07;;
8252;SDS011;61313;48.396;10.008;2022-12-07T17:26:27;10.13;;;7.47;;
8252;SDS011;61313;48.396;10.008;2022-12-07T17:28:54;13.27;;;6.00;;